createdAt,value
2023-06-21T00:00:25.509Z,17.75
2023-06-21T00:02:53.847Z,19.02
2023-06-21T00:05:23.156Z,19.23
2023-06-21T00:07:54.144Z,19.33
2023-06-21T00:10:24.573Z,18.58
2023-06-21T00:12:53.209Z,19.13
2023-06-21T00:15:24.012Z,19.58
2023-06-21T00:17:52.140Z,19.73
2023-06-21T00:20:20.502Z,19.65
2023-06-21T00:22:48.600Z,20.35
2023-06-21T00:25:17.142Z,20.05
2023-06-21T00:27:45.224Z,19.40
2023-06-21T00:30:13.542Z,20.55
2023-06-21T00:32:43.095Z,21.05
2023-06-21T00:35:11.775Z,21.48
2023-06-21T00:37:39.892Z,20.90
2023-06-21T00:40:14.021Z,22.45
2023-06-21T00:42:42.363Z,21.65
2023-06-21T00:45:16.350Z,21.15
2023-06-21T00:47:47.576Z,23.20
2023-06-21T00:50:16.185Z,22.52
2023-06-21T00:52:45.029Z,22.30
2023-06-21T00:55:14.804Z,23.17
2023-06-21T00:57:45.620Z,22.88
2023-06-21T01:00:21.455Z,23.13
2023-06-21T01:02:52.861Z,22.60
2023-06-21T01:05:24.404Z,25.40
2023-06-21T01:08:01.695Z,24.77
2023-06-21T01:10:45.343Z,23.65
2023-06-21T01:13:27.896Z,24.13
2023-06-21T01:16:04.180Z,24.90
2023-06-21T01:18:37.880Z,24.58
2023-06-21T01:21:07.325Z,23.67
2023-06-21T01:23:52.261Z,24.73
2023-06-21T01:26:36.608Z,25.27
2023-06-21T01:29:11.585Z,23.65
2023-06-21T01:31:41.935Z,25.00
2023-06-21T01:34:11.605Z,23.52
2023-06-21T01:36:41.010Z,23.73
2023-06-21T01:39:10.896Z,24.55
2023-06-21T01:41:40.131Z,22.98
2023-06-21T01:44:11.851Z,23.88
2023-06-21T01:46:41.845Z,24.85
2023-06-21T01:49:11.755Z,23.65
2023-06-21T01:51:42.614Z,23.88
2023-06-21T01:54:11.479Z,24.50
2023-06-21T01:56:42.978Z,24.35
2023-06-21T01:59:12.557Z,25.73
2023-06-21T02:01:42.752Z,26.23
2023-06-21T02:04:12.206Z,25.83
2023-06-21T02:06:41.574Z,27.35
2023-06-21T02:09:11.250Z,24.80
2023-06-21T02:11:42.380Z,25.13
2023-06-21T02:14:10.549Z,26.65
2023-06-21T02:16:40.053Z,26.00
2023-06-21T02:19:08.398Z,26.38
2023-06-21T02:21:38.749Z,26.65
2023-06-21T02:24:08.345Z,26.10
2023-06-21T02:26:39.143Z,26.88
2023-06-21T02:29:07.290Z,27.15
2023-06-21T02:31:35.791Z,28.60
2023-06-21T02:34:05.358Z,29.30
2023-06-21T02:36:33.636Z,28.98
2023-06-21T02:39:01.781Z,28.80
2023-06-21T02:41:30.060Z,28.70
2023-06-21T02:43:58.118Z,29.88
2023-06-21T02:46:26.340Z,29.50
2023-06-21T02:48:55.067Z,29.10
2023-06-21T02:51:26.414Z,30.30
2023-06-21T02:53:54.781Z,30.17
2023-06-21T02:56:23.927Z,29.98
2023-06-21T02:58:51.991Z,30.67
2023-06-21T03:01:20.295Z,30.38
2023-06-21T03:03:48.436Z,31.98
2023-06-21T03:06:16.757Z,32.97
2023-06-21T03:08:46.270Z,31.58
2023-06-21T03:11:15.723Z,30.65
2023-06-21T03:13:43.990Z,32.38
2023-06-21T03:16:12.159Z,33.55
2023-06-21T03:18:40.875Z,33.33
2023-06-21T03:21:09.499Z,32.55
2023-06-21T03:23:40.175Z,34.45
2023-06-21T03:26:11.141Z,32.30
2023-06-21T03:28:39.379Z,32.05
2023-06-21T03:31:10.573Z,31.80
2023-06-21T03:33:38.876Z,32.45
2023-06-21T03:36:08.445Z,32.63
2023-06-21T03:38:36.643Z,34.08
2023-06-21T03:41:04.728Z,32.65
2023-06-21T03:43:34.623Z,32.67
2023-06-21T03:46:07.225Z,32.28
2023-06-21T03:48:37.319Z,31.60
2023-06-21T03:51:05.566Z,32.35
2023-06-21T03:53:35.061Z,32.10
2023-06-21T03:56:03.220Z,32.25
2023-06-21T03:58:31.520Z,33.85
2023-06-21T04:01:00.944Z,32.58
2023-06-21T04:03:29.430Z,32.58
2023-06-21T04:05:57.543Z,32.58
2023-06-21T04:08:26.296Z,31.83
2023-06-21T04:10:54.453Z,33.05
2023-06-21T04:13:36.068Z,31.35
2023-06-21T04:16:06.665Z,31.40
2023-06-21T04:18:34.840Z,32.17
2023-06-21T04:21:03.084Z,31.95
2023-06-21T04:23:31.284Z,29.85
2023-06-21T04:25:59.568Z,30.00
2023-06-21T04:28:27.727Z,28.67
2023-06-21T04:30:57.394Z,28.48
2023-06-21T04:33:26.956Z,29.40
2023-06-21T04:35:55.019Z,28.98
2023-06-21T04:38:23.965Z,30.48
2023-06-21T04:40:54.277Z,29.67
2023-06-21T04:43:26.389Z,28.55
2023-06-21T04:45:54.866Z,28.58
2023-06-21T04:48:25.924Z,27.52
2023-06-21T04:50:55.483Z,26.98
2023-06-21T04:53:29.719Z,28.10
2023-06-21T04:55:58.686Z,27.30
2023-06-21T04:58:27.756Z,25.67
2023-06-21T05:00:56.324Z,26.98
2023-06-21T05:03:24.610Z,24.98
2023-06-21T05:05:52.958Z,23.98
2023-06-21T05:08:23.447Z,24.92
2023-06-21T05:10:51.553Z,26.90
2023-06-21T05:13:19.996Z,32.72
2023-06-21T05:15:48.131Z,26.02
2023-06-21T05:18:16.383Z,23.92
2023-06-21T05:20:44.688Z,24.95
2023-06-21T05:23:12.839Z,25.50
2023-06-21T05:25:42.432Z,27.17
2023-06-21T05:28:10.595Z,26.13
2023-06-21T05:30:38.750Z,24.83
2023-06-21T05:33:06.921Z,27.20
2023-06-21T05:35:35.026Z,26.50
2023-06-21T05:38:03.086Z,25.98
2023-06-21T05:40:31.413Z,25.42
2023-06-21T05:43:02.708Z,25.98
2023-06-21T05:45:31.101Z,23.02
2023-06-21T05:47:59.490Z,23.75
2023-06-21T05:50:31.482Z,23.48
2023-06-21T05:52:59.720Z,23.52
2023-06-21T05:55:28.312Z,25.33
2023-06-21T05:57:56.360Z,21.70
2023-06-21T06:00:26.173Z,22.60
2023-06-21T06:02:54.575Z,24.00
2023-06-21T06:05:22.766Z,22.90
2023-06-21T06:07:50.809Z,22.88
2023-06-21T06:10:19.269Z,27.38
2023-06-21T06:12:47.317Z,28.20
2023-06-21T06:15:15.522Z,28.38
2023-06-21T06:17:45.004Z,35.65
2023-06-21T06:20:14.155Z,22.10
2023-06-21T06:22:42.195Z,26.13
2023-06-21T06:25:11.906Z,22.70
2023-06-21T06:27:40.155Z,22.25
2023-06-21T06:30:09.376Z,21.85
2023-06-21T06:32:37.580Z,22.40
2023-06-21T06:35:08.685Z,24.55
2023-06-21T06:37:36.774Z,21.90
2023-06-21T06:40:06.607Z,38.42
2023-06-21T06:42:35.961Z,31.00
2023-06-21T06:45:06.743Z,22.60
2023-06-21T06:47:34.897Z,26.98
2023-06-21T06:50:05.416Z,22.67
2023-06-21T06:52:34.866Z,28.50
2023-06-21T06:55:04.414Z,32.20
2023-06-21T06:57:37.989Z,28.20
2023-06-21T07:00:12.870Z,29.40
2023-06-21T07:02:41.160Z,27.35
2023-06-21T07:05:10.013Z,24.60
2023-06-21T07:07:39.622Z,23.50
2023-06-21T07:10:08.518Z,19.90
2023-06-21T07:12:36.679Z,27.00
2023-06-21T07:15:05.457Z,25.10
2023-06-21T07:17:33.625Z,21.65
2023-06-21T07:20:01.805Z,23.17
2023-06-21T07:22:30.035Z,24.73
2023-06-21T07:24:59.610Z,24.63
2023-06-21T07:27:29.103Z,23.45
2023-06-21T07:29:57.641Z,24.73
2023-06-21T07:32:31.686Z,23.67
2023-06-21T07:35:00.163Z,25.67
2023-06-21T07:37:28.898Z,22.70
2023-06-21T07:39:57.466Z,28.27
2023-06-21T07:42:27.396Z,19.70
2023-06-21T07:44:56.956Z,26.48
2023-06-21T07:47:25.368Z,21.75
2023-06-21T07:49:53.565Z,26.88
2023-06-21T07:52:21.802Z,23.90
2023-06-21T07:54:50.522Z,20.02
2023-06-21T07:57:19.289Z,21.05
2023-06-21T07:59:48.784Z,20.77
2023-06-21T08:02:19.131Z,22.98
2023-06-21T08:04:48.278Z,25.70
2023-06-21T08:07:16.499Z,20.75
2023-06-21T08:09:44.701Z,19.75
2023-06-21T08:12:14.040Z,21.40
2023-06-21T08:14:42.135Z,25.45
2023-06-21T08:17:11.623Z,20.55
2023-06-21T08:19:39.750Z,18.17
2023-06-21T08:22:08.105Z,19.13
2023-06-21T08:24:36.513Z,18.23
2023-06-21T08:27:04.905Z,21.08
2023-06-21T08:29:33.179Z,23.65
2023-06-21T08:32:01.494Z,15.00
2023-06-21T08:34:31.068Z,17.15
2023-06-21T08:36:59.189Z,17.10
2023-06-21T08:39:29.290Z,17.30
2023-06-21T08:41:59.578Z,16.35
2023-06-21T08:44:27.783Z,15.88
2023-06-21T08:46:58.129Z,15.60
2023-06-21T08:49:28.758Z,15.90
2023-06-21T08:52:01.692Z,15.30
2023-06-21T08:54:32.464Z,15.98
2023-06-21T08:57:05.707Z,16.02
2023-06-21T08:59:37.752Z,15.38
2023-06-21T09:02:15.063Z,16.00
2023-06-21T09:04:47.648Z,14.90
2023-06-21T09:07:18.340Z,16.30
2023-06-21T09:09:48.221Z,16.00
2023-06-21T09:12:19.292Z,14.88
2023-06-21T09:14:48.362Z,15.68
2023-06-21T09:17:16.810Z,15.32
2023-06-21T09:19:45.371Z,15.30
2023-06-21T09:22:14.869Z,15.10
2023-06-21T09:24:46.096Z,15.68
2023-06-21T09:27:14.407Z,16.20
2023-06-21T09:29:42.581Z,15.55
2023-06-21T09:32:10.824Z,15.65
2023-06-21T09:34:39.123Z,14.13
2023-06-21T09:37:07.248Z,16.00
2023-06-21T09:39:35.321Z,14.00
2023-06-21T09:42:06.986Z,15.02
2023-06-21T09:44:36.707Z,14.52
2023-06-21T09:47:06.157Z,14.13
2023-06-21T09:49:34.326Z,15.15
2023-06-21T09:52:02.458Z,14.00
2023-06-21T09:54:42.813Z,14.48
2023-06-21T09:57:12.648Z,14.60
2023-06-21T09:59:41.857Z,15.07
2023-06-21T10:02:10.357Z,13.30
2023-06-21T10:04:43.217Z,13.82
2023-06-21T10:07:15.328Z,15.00
2023-06-21T10:09:43.874Z,13.70
2023-06-21T10:12:14.077Z,17.70
2023-06-21T10:14:42.837Z,15.73
2023-06-21T10:17:11.348Z,16.15
2023-06-21T10:19:39.652Z,14.73
2023-06-21T10:22:10.352Z,15.02
2023-06-21T10:24:42.652Z,16.83
2023-06-21T10:27:14.278Z,15.73
2023-06-21T10:29:45.603Z,14.38
2023-06-21T10:32:14.827Z,16.20
2023-06-21T10:34:53.779Z,16.08
2023-06-21T10:37:29.242Z,15.98
2023-06-21T10:40:10.544Z,16.13
2023-06-21T10:42:42.023Z,16.92
2023-06-21T10:45:12.354Z,14.82
2023-06-21T10:47:41.842Z,16.00
2023-06-21T10:50:11.712Z,15.68
2023-06-21T10:52:41.511Z,16.75
2023-06-21T10:55:11.331Z,15.68
2023-06-21T10:57:41.754Z,16.88
2023-06-21T11:00:11.694Z,15.55
2023-06-21T11:02:40.050Z,16.08
2023-06-21T11:05:15.820Z,17.45
2023-06-21T11:07:49.798Z,15.43
2023-06-21T11:10:18.146Z,15.20
2023-06-21T11:12:47.746Z,14.07
2023-06-21T11:15:23.291Z,16.25
2023-06-21T11:18:05.126Z,19.25
2023-06-21T11:20:35.863Z,16.55
2023-06-21T11:23:10.667Z,17.08
2023-06-21T11:25:39.014Z,16.80
2023-06-21T11:28:33.826Z,19.05
2023-06-21T11:31:09.578Z,17.35
2023-06-21T11:33:52.957Z,18.77
2023-06-21T11:36:23.414Z,17.17
2023-06-21T11:38:53.887Z,16.50
2023-06-21T11:41:57.902Z,15.07
2023-06-21T11:44:28.853Z,15.77
2023-06-21T11:47:19.604Z,16.33
2023-06-21T11:49:53.522Z,16.35
2023-06-21T11:52:26.260Z,16.40
2023-06-21T11:54:54.487Z,15.20
2023-06-21T11:57:22.615Z,21.05
2023-06-21T11:59:52.003Z,15.27
2023-06-21T12:02:22.082Z,15.43
2023-06-21T12:04:51.641Z,17.08
2023-06-21T12:07:20.306Z,15.43
2023-06-21T12:09:54.667Z,15.93
2023-06-21T12:12:26.777Z,17.10
2023-06-21T12:14:59.152Z,16.42
2023-06-21T12:17:27.430Z,18.90
2023-06-21T12:20:00.665Z,16.80
2023-06-21T12:22:28.864Z,14.57
2023-06-21T12:24:57.134Z,14.45
2023-06-21T12:27:25.189Z,17.15
2023-06-21T12:29:53.211Z,17.63
2023-06-21T12:32:23.340Z,17.65
2023-06-21T12:34:51.619Z,17.80
2023-06-21T12:37:21.688Z,18.38
2023-06-21T12:39:54.932Z,19.27
2023-06-21T12:42:23.322Z,19.45
2023-06-21T12:44:58.667Z,22.05
2023-06-21T12:47:28.190Z,22.00
2023-06-21T12:50:03.062Z,25.17
2023-06-21T12:52:32.039Z,25.83
2023-06-21T12:55:02.192Z,26.45
2023-06-21T12:57:32.755Z,28.50
2023-06-21T13:00:00.983Z,29.35
2023-06-21T13:02:30.710Z,30.58
2023-06-21T13:04:59.323Z,32.40
2023-06-21T13:07:27.407Z,29.27
2023-06-21T13:09:55.645Z,28.42
2023-06-21T13:12:23.743Z,24.92
2023-06-21T13:14:51.895Z,22.98
2023-06-21T13:17:20.087Z,22.40
2023-06-21T13:19:49.613Z,20.63
2023-06-21T13:22:17.714Z,19.52
2023-06-21T13:24:45.818Z,19.25
2023-06-21T13:27:13.950Z,18.95
2023-06-21T13:29:42.279Z,16.77
2023-06-21T13:32:10.548Z,17.35
2023-06-21T13:34:38.764Z,17.40
2023-06-21T13:37:08.426Z,16.38
2023-06-21T13:39:36.641Z,17.45
2023-06-21T13:42:05.030Z,16.80
2023-06-21T13:44:33.291Z,15.98
2023-06-21T13:47:01.507Z,15.73
2023-06-21T13:49:29.782Z,16.60
2023-06-21T13:51:57.984Z,17.65
2023-06-21T13:54:27.495Z,17.27
2023-06-21T13:56:55.569Z,17.42
2023-06-21T13:59:37.658Z,15.88
2023-06-21T14:02:07.086Z,21.48
2023-06-21T14:04:35.410Z,17.35
2023-06-21T14:07:03.920Z,18.35
2023-06-21T14:09:35.099Z,28.27
2023-06-21T14:12:03.219Z,25.42
2023-06-21T14:14:31.304Z,17.25
2023-06-21T14:16:59.606Z,15.57
2023-06-21T14:19:27.714Z,15.15
2023-06-21T14:21:55.894Z,19.00
2023-06-21T14:24:24.059Z,16.35
2023-06-21T14:26:53.599Z,15.93
2023-06-21T14:29:21.692Z,16.20
2023-06-21T14:31:50.068Z,15.75
2023-06-21T14:34:18.253Z,24.17
2023-06-21T14:36:46.399Z,19.40
2023-06-21T14:39:14.564Z,15.80
2023-06-21T14:41:42.770Z,14.70
2023-06-21T14:44:12.406Z,15.90
2023-06-21T14:46:40.620Z,15.25
2023-06-21T14:49:12.826Z,15.68
2023-06-21T14:51:41.136Z,16.98
2023-06-21T14:54:09.169Z,15.50
2023-06-21T14:56:37.264Z,16.25
2023-06-21T14:59:05.450Z,16.67
2023-06-21T15:01:35.071Z,16.63
2023-06-21T15:04:03.345Z,15.32
2023-06-21T15:06:32.100Z,15.70
2023-06-21T15:09:00.230Z,16.45
2023-06-21T15:11:28.350Z,21.25
2023-06-21T15:13:57.234Z,17.88
2023-06-21T15:16:29.968Z,18.02
2023-06-21T15:18:59.512Z,16.95
2023-06-21T15:21:27.648Z,14.75
2023-06-21T15:23:55.665Z,14.75
2023-06-21T15:26:23.766Z,14.13
2023-06-21T15:28:51.931Z,14.43
2023-06-21T15:31:22.532Z,15.68
2023-06-21T15:33:50.698Z,15.90
2023-06-21T15:36:20.372Z,14.55
2023-06-21T15:38:48.619Z,13.75
2023-06-21T15:41:17.109Z,12.10
2023-06-21T15:43:45.317Z,12.20
2023-06-21T15:46:16.873Z,12.15
2023-06-21T15:48:45.157Z,12.05
2023-06-21T15:51:13.307Z,11.85
2023-06-21T15:53:43.731Z,12.23
2023-06-21T15:56:11.929Z,12.13
2023-06-21T15:58:40.135Z,11.15
2023-06-21T16:01:10.014Z,11.77
2023-06-21T16:03:38.282Z,11.07
2023-06-21T16:06:06.544Z,12.18
2023-06-21T16:08:34.675Z,11.30
2023-06-21T16:11:04.170Z,11.25
2023-06-21T16:13:35.534Z,11.63
2023-06-21T16:16:08.679Z,11.73
2023-06-21T16:18:36.862Z,10.90
2023-06-21T16:21:05.172Z,10.77
2023-06-21T16:23:33.424Z,10.75
2023-06-21T16:26:01.909Z,11.30
2023-06-21T16:28:31.530Z,11.10
2023-06-21T16:30:59.738Z,11.45
2023-06-21T16:33:27.866Z,11.07
2023-06-21T16:35:55.936Z,11.45
2023-06-21T16:38:24.244Z,11.65
2023-06-21T16:40:52.400Z,11.32
2023-06-21T16:43:20.605Z,12.05
2023-06-21T16:45:50.345Z,12.00
2023-06-21T16:48:19.456Z,11.57
2023-06-21T16:50:47.931Z,11.27
2023-06-21T16:53:16.183Z,12.98
2023-06-21T16:55:44.267Z,10.55
2023-06-21T16:58:12.523Z,10.98
2023-06-21T17:00:40.868Z,10.80
2023-06-21T17:03:10.486Z,11.05
2023-06-21T17:05:40.194Z,10.52
2023-06-21T17:08:08.509Z,9.75
2023-06-21T17:10:36.591Z,9.68
2023-06-21T17:13:04.772Z,9.60
2023-06-21T17:15:32.833Z,9.45
2023-06-21T17:18:01.086Z,9.52
2023-06-21T17:20:30.850Z,8.82
2023-06-21T17:22:59.125Z,9.30
2023-06-21T17:25:27.825Z,9.27
2023-06-21T17:27:56.208Z,8.75
2023-06-21T17:30:24.415Z,8.38
2023-06-21T17:32:52.694Z,8.15
2023-06-21T17:35:21.191Z,8.60
2023-06-21T17:37:50.593Z,8.95
2023-06-21T17:40:18.778Z,8.73
2023-06-21T17:42:46.943Z,8.88
2023-06-21T17:45:17.444Z,9.18
2023-06-21T17:47:45.689Z,10.00
2023-06-21T17:50:14.013Z,9.52
2023-06-21T17:52:42.095Z,10.95
2023-06-21T17:55:13.662Z,10.43
2023-06-21T17:57:41.878Z,9.50
2023-06-21T18:00:10.761Z,10.00
2023-06-21T18:02:41.972Z,10.75
2023-06-21T18:05:13.507Z,10.05
2023-06-21T18:07:42.115Z,9.65
2023-06-21T18:10:12.122Z,10.35
2023-06-21T18:12:40.317Z,10.70
2023-06-21T18:15:09.426Z,12.77
2023-06-21T18:17:39.170Z,15.27
2023-06-21T18:20:08.885Z,11.95
2023-06-21T18:22:43.065Z,11.10
2023-06-21T18:25:13.764Z,11.35
2023-06-21T18:27:41.915Z,10.82
2023-06-21T18:30:10.979Z,11.60
2023-06-21T18:32:40.200Z,11.57
2023-06-21T18:35:10.896Z,11.55
2023-06-21T18:37:40.144Z,12.15
2023-06-21T18:40:09.798Z,15.20
2023-06-21T18:42:40.113Z,15.52
2023-06-21T18:45:09.339Z,11.90
2023-06-21T18:47:37.584Z,10.68
2023-06-21T18:50:06.622Z,14.13
2023-06-21T18:52:34.775Z,13.50
2023-06-21T18:55:02.932Z,28.40
2023-06-21T18:57:32.447Z,15.23
2023-06-21T19:00:01.938Z,12.85
2023-06-21T19:02:30.207Z,13.90
2023-06-21T19:04:58.654Z,12.75
2023-06-21T19:07:27.105Z,13.30
2023-06-21T19:09:55.553Z,13.55
2023-06-21T19:12:24.846Z,13.30
2023-06-21T19:14:53.834Z,13.05
2023-06-21T19:17:23.424Z,14.10
2023-06-21T19:19:51.624Z,13.43
2023-06-21T19:22:19.720Z,15.77
2023-06-21T19:24:47.847Z,13.95
2023-06-21T19:27:15.936Z,14.75
2023-06-21T19:29:43.996Z,13.77
2023-06-21T19:32:12.272Z,15.88
2023-06-21T19:34:41.769Z,14.15
2023-06-21T19:37:10.056Z,14.00
2023-06-21T19:39:38.366Z,15.13
2023-06-21T19:42:07.779Z,15.02
2023-06-21T19:44:35.913Z,15.20
2023-06-21T19:47:04.377Z,16.48
2023-06-21T19:49:32.462Z,16.05
2023-06-21T19:52:02.007Z,16.73
2023-06-21T19:54:30.200Z,17.30
2023-06-21T19:56:59.598Z,17.17
2023-06-21T19:59:27.853Z,18.52
2023-06-21T20:01:55.974Z,17.20
2023-06-21T20:04:24.095Z,18.70
2023-06-21T20:06:52.311Z,21.08
2023-06-21T20:09:21.788Z,21.27
2023-06-21T20:11:49.911Z,22.27
2023-06-21T20:14:18.535Z,22.02
2023-06-21T20:16:46.655Z,22.55
2023-06-21T20:19:16.864Z,21.90
2023-06-21T20:21:46.970Z,22.85
2023-06-21T20:24:15.373Z,31.63
2023-06-21T20:26:45.170Z,23.95
2023-06-21T20:29:13.364Z,23.58
2023-06-21T20:31:41.547Z,24.30
2023-06-21T20:34:09.718Z,25.25
2023-06-21T20:36:39.221Z,24.60
2023-06-21T20:39:08.989Z,25.25
2023-06-21T20:41:37.203Z,25.90
2023-06-21T20:44:06.862Z,24.85
2023-06-21T20:46:35.051Z,26.35
2023-06-21T20:49:04.566Z,26.65
2023-06-21T20:51:32.870Z,26.55
2023-06-21T20:54:01.040Z,26.75
2023-06-21T20:56:29.188Z,26.55
2023-06-21T20:58:58.459Z,28.08
2023-06-21T21:01:28.136Z,29.33
2023-06-21T21:03:56.736Z,29.88
2023-06-21T21:06:25.053Z,30.30
2023-06-21T21:08:53.318Z,32.20
2023-06-21T21:11:21.427Z,34.20
2023-06-21T21:13:49.524Z,40.35
2023-06-21T21:16:17.695Z,35.75
2023-06-21T21:18:47.249Z,35.10
2023-06-21T21:21:15.328Z,35.30
2023-06-21T21:23:43.765Z,38.13
2023-06-21T21:26:11.807Z,41.55
2023-06-21T21:28:40.086Z,37.75
2023-06-21T21:31:08.273Z,37.55
2023-06-21T21:33:36.507Z,37.40
2023-06-21T21:36:06.799Z,39.42
2023-06-21T21:38:35.156Z,40.22
2023-06-21T21:41:03.248Z,40.28
2023-06-21T21:43:31.376Z,40.88
2023-06-21T21:45:59.498Z,41.53
2023-06-21T21:48:27.640Z,41.30
2023-06-21T21:50:55.806Z,42.28
2023-06-21T21:53:25.371Z,41.78
2023-06-21T21:55:53.530Z,43.50
2023-06-21T21:58:21.747Z,42.90
2023-06-21T22:00:49.897Z,43.60
2023-06-21T22:03:18.212Z,43.05
2023-06-21T22:05:46.332Z,42.38
2023-06-21T22:08:14.461Z,44.28
2023-06-21T22:10:44.140Z,45.35
2023-06-21T22:13:12.379Z,48.17
2023-06-21T22:15:50.610Z,48.30
2023-06-21T22:18:24.956Z,50.08
2023-06-21T22:20:54.461Z,52.35
2023-06-21T22:23:22.574Z,53.95
2023-06-21T22:25:52.584Z,54.05
2023-06-21T22:28:20.795Z,55.13
2023-06-21T22:30:49.103Z,55.22
2023-06-21T22:33:17.387Z,56.58
2023-06-21T22:35:45.488Z,57.53
2023-06-21T22:38:13.642Z,58.50
2023-06-21T22:40:41.707Z,59.70
2023-06-21T22:43:11.286Z,59.80
2023-06-21T22:45:44.393Z,60.58
2023-06-21T22:48:14.656Z,61.63
2023-06-21T22:50:44.077Z,59.67
2023-06-21T22:53:12.293Z,60.70
2023-06-21T22:55:40.453Z,59.50
2023-06-21T22:58:08.659Z,58.33
2023-06-21T23:00:38.167Z,57.60
2023-06-21T23:03:06.566Z,57.72
2023-06-21T23:05:34.886Z,57.05
2023-06-21T23:08:03.245Z,57.65
2023-06-21T23:10:31.658Z,56.50
2023-06-21T23:13:06.597Z,56.08
2023-06-21T23:15:35.769Z,55.53
2023-06-21T23:18:05.424Z,55.30
2023-06-21T23:20:37.994Z,54.90
2023-06-21T23:23:16.212Z,53.53
2023-06-21T23:25:46.102Z,54.63
2023-06-21T23:28:14.271Z,54.45
2023-06-21T23:30:44.367Z,52.38
2023-06-21T23:33:14.081Z,52.63
2023-06-21T23:35:42.250Z,51.70
2023-06-21T23:38:10.455Z,53.05
2023-06-21T23:40:38.775Z,53.83
2023-06-21T23:43:09.234Z,53.72
2023-06-21T23:45:40.401Z,55.45
2023-06-21T23:48:09.226Z,57.65
2023-06-21T23:50:38.751Z,59.97
2023-06-21T23:53:08.108Z,62.97
2023-06-21T23:55:40.228Z,65.15
2023-06-21T23:58:08.632Z,66.93
